createdAt,value
2019-03-12T00:01:33.364Z,4.26
2019-03-12T00:04:23.794Z,4.19
2019-03-12T00:07:13.405Z,4.25
2019-03-12T00:12:25.207Z,4.18
2019-03-12T00:14:55.839Z,4.18
2019-03-12T00:17:45.375Z,4.15
2019-03-12T00:20:34.913Z,4.15
2019-03-12T00:23:24.402Z,4.09
2019-03-12T00:25:55.156Z,4.07
2019-03-12T00:28:44.994Z,4.05
2019-03-12T00:31:15.685Z,4.01
2019-03-12T00:34:05.577Z,4.01
2019-03-12T00:36:36.238Z,3.92
2019-03-12T00:39:30.969Z,3.78
2019-03-12T00:42:08.057Z,3.79
2019-03-12T00:44:38.847Z,3.71
2019-03-12T00:47:10.957Z,3.67
2019-03-12T00:50:07.811Z,3.65
2019-03-12T00:52:57.915Z,3.73
2019-03-12T00:55:47.890Z,3.59
2019-03-12T00:58:38.114Z,3.58
2019-03-12T01:01:09.765Z,3.56
2019-03-12T01:04:00.005Z,3.45
2019-03-12T01:06:30.764Z,3.22
2019-03-12T01:09:22.855Z,3.12
2019-03-12T01:11:53.488Z,2.97
2019-03-12T01:14:44.744Z,2.84
2019-03-12T01:17:15.774Z,2.76
2019-03-12T01:19:46.526Z,2.82
2019-03-12T01:22:36.372Z,2.75
2019-03-12T01:25:26.263Z,2.73
2019-03-12T01:27:56.896Z,2.67
2019-03-12T01:30:46.497Z,2.65
2019-03-12T01:33:36.278Z,2.50
2019-03-12T01:36:44.684Z,2.37
2019-03-12T01:39:34.826Z,2.35
2019-03-12T01:42:07.530Z,2.25
2019-03-12T01:44:57.281Z,2.26
2019-03-12T01:47:46.752Z,2.30
2019-03-12T01:50:36.616Z,2.39
2019-03-12T01:53:07.526Z,2.44
2019-03-12T01:55:57.232Z,2.44
2019-03-12T01:58:46.724Z,2.41
2019-03-12T02:01:36.211Z,2.38
2019-03-12T02:04:25.709Z,2.30
2019-03-12T02:07:15.704Z,2.28
2019-03-12T02:09:48.060Z,2.17
2019-03-12T02:12:18.904Z,2.19
2019-03-12T02:14:51.124Z,2.13
2019-03-12T02:17:40.750Z,2.18
2019-03-12T02:20:13.558Z,2.17
2019-03-12T02:25:45.767Z,2.18
2019-03-12T02:28:27.184Z,2.11
2019-03-12T02:30:57.974Z,2.13
2019-03-12T02:33:47.795Z,2.07
2019-03-12T02:36:20.317Z,2.02
2019-03-12T02:39:30.755Z,2.03
2019-03-12T02:42:02.800Z,2.03
2019-03-12T02:44:33.637Z,1.97
2019-03-12T02:47:23.311Z,1.90
2019-03-12T02:49:54.044Z,1.84
2019-03-12T02:52:24.877Z,1.82
2019-03-12T02:55:15.597Z,1.86
2019-03-12T02:57:46.453Z,1.77
2019-03-12T03:00:38.162Z,1.65
2019-03-12T03:03:28.407Z,1.62
2019-03-12T03:06:08.910Z,1.62
2019-03-12T03:08:40.479Z,1.56
2019-03-12T03:11:12.288Z,1.51
2019-03-12T03:14:05.635Z,1.48
2019-03-12T03:16:55.389Z,0.52
2019-03-12T03:19:45.224Z,1.36
2019-03-12T03:22:16.037Z,1.28
2019-03-12T03:27:58.266Z,1.24
2019-03-12T03:30:48.136Z,1.14
2019-03-12T03:33:38.092Z,1.09
2019-03-12T03:36:08.874Z,1.07
2019-03-12T03:38:58.783Z,1.06
2019-03-12T03:41:29.820Z,1.06
2019-03-12T03:44:19.916Z,1.05
2019-03-12T03:46:50.589Z,0.97
2019-03-12T03:49:40.431Z,0.97
2019-03-12T03:52:30.129Z,0.97
2019-03-12T03:55:20.428Z,0.90
2019-03-12T03:58:10.349Z,0.84
2019-03-12T04:00:40.877Z,0.85
2019-03-12T04:03:30.669Z,0.82
2019-03-12T04:06:20.444Z,0.81
2019-03-12T04:09:11.545Z,0.79
2019-03-12T04:14:36.381Z,0.72
2019-03-12T04:17:18.115Z,0.77
2019-03-12T04:19:59.806Z,0.73
2019-03-12T04:22:41.352Z,0.70
2019-03-12T04:25:23.184Z,0.72
2019-03-12T04:27:54.101Z,0.60
2019-03-12T04:30:24.958Z,0.64
2019-03-12T04:32:55.521Z,0.68
2019-03-12T04:35:26.470Z,0.58
2019-03-12T04:37:57.057Z,0.54
2019-03-12T04:40:27.591Z,0.50
2019-03-12T04:43:17.204Z,0.45
2019-03-12T04:45:48.013Z,0.53
2019-03-12T04:48:38.016Z,0.48
2019-03-12T04:51:08.715Z,0.46
2019-03-12T04:53:39.393Z,0.40
2019-03-12T04:56:10.054Z,0.41
2019-03-12T04:58:59.828Z,0.41
2019-03-12T05:01:49.475Z,0.44
2019-03-12T05:04:39.653Z,0.44
2019-03-12T05:07:10.368Z,0.35
2019-03-12T05:10:00.165Z,0.33
2019-03-12T05:15:14.689Z,0.33
2019-03-12T05:18:04.133Z,0.30
2019-03-12T05:20:54.278Z,0.34
2019-03-12T05:23:43.742Z,0.30
2019-03-12T05:26:33.742Z,0.17
2019-03-12T05:29:04.473Z,0.07
2019-03-12T05:31:35.094Z,0.07
2019-03-12T05:34:06.011Z,0.08
2019-03-12T05:36:36.566Z,0.14
2019-03-12T05:39:27.162Z,0.16
2019-03-12T05:41:58.035Z,0.20
2019-03-12T05:44:49.352Z,0.15
2019-03-12T05:47:39.691Z,0.26
2019-03-12T05:50:29.399Z,0.26
2019-03-12T05:53:20.659Z,0.21
2019-03-12T05:56:12.219Z,0.20
2019-03-12T05:59:02.337Z,0.29
2019-03-12T06:04:35.921Z,0.20
2019-03-12T06:07:27.492Z,0.10
2019-03-12T06:09:57.601Z,0.07
2019-03-12T06:12:27.914Z,0.18
2019-03-12T06:14:58.348Z,0.25
2019-03-12T06:17:28.474Z,0.37
2019-03-12T06:19:58.622Z,0.45
2019-03-12T06:22:29.635Z,0.64
2019-03-12T06:25:00.074Z,0.65
2019-03-12T06:27:30.325Z,0.79
2019-03-12T06:30:00.498Z,0.81
2019-03-12T06:32:49.564Z,0.83
2019-03-12T06:35:42.735Z,0.79
2019-03-12T06:38:32.450Z,0.75
2019-03-12T06:41:21.468Z,0.77
2019-03-12T06:44:10.822Z,0.85
2019-03-12T06:47:00.159Z,1.05
2019-03-12T06:50:14.506Z,1.17
2019-03-12T06:53:22.640Z,1.25
2019-03-12T06:56:12.148Z,1.12
2019-03-12T06:59:10.713Z,1.20
2019-03-12T07:01:59.864Z,1.17
2019-03-12T07:04:50.764Z,1.19
2019-03-12T07:08:00.362Z,1.36
2019-03-12T07:11:18.704Z,1.46
2019-03-12T07:14:08.037Z,1.71
2019-03-12T07:16:59.888Z,1.92
2019-03-12T07:19:49.320Z,2.29
2019-03-12T07:22:57.394Z,2.71
2019-03-12T07:26:09.962Z,3.09
2019-03-12T07:28:50.622Z,3.41
2019-03-12T07:31:37.418Z,3.98
2019-03-12T07:34:36.160Z,4.51
2019-03-12T07:37:36.614Z,5.37
2019-03-12T07:40:45.009Z,5.64
2019-03-12T07:43:34.332Z,6.34
2019-03-12T07:46:23.348Z,6.93
2019-03-12T07:49:12.506Z,7.02
2019-03-12T07:52:01.528Z,7.65
2019-03-12T07:54:38.914Z,7.30
2019-03-12T07:57:47.282Z,6.98
2019-03-12T08:00:45.586Z,6.65
2019-03-12T08:03:53.660Z,7.46
2019-03-12T08:06:44.145Z,7.44
2019-03-12T08:09:33.202Z,9.42
2019-03-12T08:12:12.257Z,10.14
2019-03-12T08:15:23.120Z,10.56
2019-03-12T08:17:55.948Z,10.65
2019-03-12T08:20:40.191Z,10.83
2019-03-12T08:23:48.283Z,10.78
2019-03-12T08:26:56.389Z,10.15
2019-03-12T08:30:04.511Z,10.13
2019-03-12T08:33:01.064Z,10.49
2019-03-12T08:36:09.620Z,11.56
2019-03-12T08:38:58.802Z,11.41
2019-03-12T08:42:15.963Z,11.61
2019-03-12T08:45:16.675Z,10.33
2019-03-12T08:48:17.404Z,10.18
2019-03-12T08:51:14.387Z,10.42
2019-03-12T08:54:17.643Z,10.85
2019-03-12T08:57:14.462Z,11.27
2019-03-12T09:00:24.090Z,12.19
2019-03-12T09:03:13.761Z,11.93
2019-03-12T09:06:02.779Z,11.23
2019-03-12T09:08:51.820Z,11.46
2019-03-12T09:12:00.166Z,11.61
2019-03-12T09:15:08.386Z,11.79
2019-03-12T09:18:16.649Z,12.93
2019-03-12T09:21:20.545Z,13.97
2019-03-12T09:24:04.034Z,13.83
2019-03-12T09:26:43.432Z,15.01
2019-03-12T09:32:15.150Z,13.76
2019-03-12T09:35:23.217Z,14.08
2019-03-12T09:38:31.398Z,14.10
2019-03-12T09:41:28.132Z,14.98
2019-03-12T09:44:17.169Z,14.76
2019-03-12T09:47:13.631Z,14.90
2019-03-12T09:50:02.682Z,14.01
2019-03-12T09:52:51.737Z,14.16
2019-03-12T09:55:40.746Z,14.86
2019-03-12T10:01:13.978Z,13.62
2019-03-12T10:03:49.824Z,15.11
2019-03-12T10:06:58.216Z,14.81
2019-03-12T10:09:47.630Z,14.15
2019-03-12T10:12:55.756Z,13.02
2019-03-12T10:16:03.807Z,12.40
2019-03-12T10:19:12.083Z,11.14
2019-03-12T10:22:20.494Z,11.53
2019-03-12T10:25:09.509Z,10.76
2019-03-12T10:28:14.905Z,10.33
2019-03-12T10:31:03.916Z,9.91
2019-03-12T10:34:12.270Z,10.67
2019-03-12T10:37:20.337Z,10.74
2019-03-12T10:40:29.281Z,10.15
2019-03-12T10:43:37.360Z,10.30
2019-03-12T10:46:45.443Z,10.03
2019-03-12T10:49:37.649Z,9.90
2019-03-12T10:52:06.551Z,9.69
2019-03-12T10:54:37.101Z,9.97
2019-03-12T10:57:26.426Z,10.37
2019-03-12T11:00:16.039Z,10.24
2019-03-12T11:02:46.542Z,10.61
2019-03-12T11:05:45.374Z,10.67
2019-03-12T11:08:07.617Z,10.35
2019-03-12T11:10:57.162Z,10.56
2019-03-12T11:13:46.506Z,10.64
2019-03-12T11:16:36.222Z,10.24
2019-03-12T11:19:25.375Z,9.99
2019-03-12T11:21:55.542Z,9.88
2019-03-12T11:24:45.582Z,9.95
2019-03-12T11:27:15.713Z,9.98
2019-03-12T11:29:57.335Z,10.28
2019-03-12T11:32:39.243Z,10.48
2019-03-12T11:35:20.880Z,10.67
2019-03-12T11:38:02.693Z,10.66
2019-03-12T11:40:44.280Z,10.65
2019-03-12T11:43:24.913Z,10.60
2019-03-12T11:46:14.119Z,10.66
2019-03-12T11:48:44.426Z,10.76
2019-03-12T11:51:33.632Z,11.21
2019-03-12T11:57:32.647Z,11.65
2019-03-12T12:00:02.931Z,11.58
2019-03-12T12:03:00.085Z,10.38
2019-03-12T12:05:24.091Z,10.83
2019-03-12T12:08:13.585Z,11.22
2019-03-12T12:11:02.871Z,11.62
2019-03-12T12:13:52.038Z,11.60
2019-03-12T12:16:22.155Z,11.52
2019-03-12T12:18:52.726Z,11.33
2019-03-12T12:21:42.385Z,11.23
2019-03-12T12:24:31.884Z,11.39
2019-03-12T12:27:21.157Z,11.47
2019-03-12T12:30:02.597Z,11.59
2019-03-12T12:32:32.743Z,11.83
2019-03-12T12:35:21.978Z,12.33
2019-03-12T12:38:11.161Z,12.16
2019-03-12T12:40:41.471Z,12.39
2019-03-12T12:43:11.933Z,12.10
2019-03-12T12:46:01.115Z,12.14
2019-03-12T12:49:17.013Z,12.33
2019-03-12T12:52:06.335Z,12.81
2019-03-12T12:54:36.474Z,12.65
2019-03-12T12:57:20.524Z,12.87
2019-03-12T13:00:14.589Z,12.51
2019-03-12T13:02:44.868Z,12.69
2019-03-12T13:05:35.475Z,12.67
2019-03-12T13:08:24.747Z,12.78
2019-03-12T13:10:55.291Z,12.86
2019-03-12T13:13:44.549Z,12.70
2019-03-12T13:16:36.002Z,13.13
2019-03-12T13:19:06.189Z,13.53
2019-03-12T13:21:55.677Z,13.42
2019-03-12T13:24:45.060Z,13.45
2019-03-12T13:27:42.096Z,13.81
2019-03-12T13:30:25.297Z,13.39
2019-03-12T13:33:14.887Z,12.92
2019-03-12T13:36:24.428Z,11.85
2019-03-12T13:39:13.590Z,12.38
2019-03-12T13:41:44.042Z,12.16
2019-03-12T13:47:30.118Z,12.08
2019-03-12T13:50:01.514Z,12.28
2019-03-12T13:52:51.843Z,12.11
2019-03-12T13:55:41.526Z,12.14
2019-03-12T13:58:30.724Z,12.24
2019-03-12T14:01:20.123Z,12.28
2019-03-12T14:03:50.396Z,12.19
2019-03-12T14:06:20.558Z,12.15
2019-03-12T14:08:50.689Z,12.38
2019-03-12T14:11:23.115Z,12.32
2019-03-12T14:13:53.229Z,12.44
2019-03-12T14:16:23.296Z,12.86
2019-03-12T14:18:53.549Z,13.31
2019-03-12T14:21:23.678Z,13.52
2019-03-12T14:24:05.232Z,13.96
2019-03-12T14:26:54.434Z,13.84
2019-03-12T14:29:43.800Z,13.58
2019-03-12T14:32:23.781Z,13.10
2019-03-12T14:35:12.981Z,12.96
2019-03-12T14:38:02.279Z,13.34
2019-03-12T14:40:52.325Z,13.56
2019-03-12T14:43:41.743Z,13.83
2019-03-12T14:46:31.032Z,13.85
2019-03-12T14:49:20.817Z,14.53
2019-03-12T14:52:28.975Z,14.17
2019-03-12T14:55:18.529Z,13.86
2019-03-12T14:58:07.881Z,13.79
2019-03-12T15:00:57.926Z,15.17
2019-03-12T15:03:51.732Z,14.79
2019-03-12T15:06:22.922Z,15.18
2019-03-12T15:09:13.492Z,15.85
2019-03-12T15:11:44.178Z,16.60
2019-03-12T15:14:16.783Z,16.26
2019-03-12T15:16:48.327Z,16.27
2019-03-12T15:19:37.920Z,16.59
2019-03-12T15:22:27.941Z,16.42
2019-03-12T15:24:58.639Z,16.86
2019-03-12T15:28:07.141Z,16.83
2019-03-12T15:30:56.424Z,17.32
2019-03-12T15:33:27.279Z,17.30
2019-03-12T15:36:16.854Z,16.49
2019-03-12T15:39:07.731Z,15.42
2019-03-12T15:41:37.988Z,14.31
2019-03-12T15:44:09.074Z,13.43
2019-03-12T15:46:58.567Z,12.98
2019-03-12T15:49:47.740Z,12.59
2019-03-12T15:55:19.992Z,11.91
2019-03-12T15:58:06.758Z,11.78
2019-03-12T16:00:57.128Z,11.78
2019-03-12T16:03:46.492Z,10.93
2019-03-12T16:06:33.290Z,11.50
2019-03-12T16:09:06.968Z,11.60
2019-03-12T16:11:57.610Z,11.66
2019-03-12T16:14:46.828Z,11.63
2019-03-12T16:17:17.356Z,11.65
2019-03-12T16:19:47.515Z,11.49
2019-03-12T16:22:18.214Z,11.46
2019-03-12T16:27:57.666Z,11.10
2019-03-12T16:30:46.942Z,10.88
2019-03-12T16:33:17.041Z,10.80
2019-03-12T16:35:47.206Z,10.63
2019-03-12T16:38:17.790Z,10.40
2019-03-12T16:41:07.266Z,10.30
2019-03-12T16:43:39.619Z,10.35
2019-03-12T16:46:10.023Z,10.22
2019-03-12T16:51:35.800Z,10.01
2019-03-12T16:54:26.091Z,9.93
2019-03-12T16:57:07.342Z,9.66
2019-03-12T16:59:49.056Z,9.78
2019-03-12T17:02:19.287Z,9.75
2019-03-12T17:05:10.060Z,9.61
2019-03-12T17:07:41.840Z,9.44
2019-03-12T17:10:12.467Z,9.35
2019-03-12T17:16:05.727Z,9.14
2019-03-12T17:18:54.998Z,8.93
2019-03-12T17:21:25.135Z,8.87
2019-03-12T17:24:14.560Z,8.85
2019-03-12T17:27:04.344Z,8.78
2019-03-12T17:29:55.569Z,8.26
2019-03-12T17:32:25.681Z,8.61
2019-03-12T17:35:07.614Z,8.54
2019-03-12T17:37:49.384Z,8.53
2019-03-12T17:46:14.063Z,8.52
2019-03-12T17:48:44.375Z,8.55
2019-03-12T17:51:14.871Z,8.37
2019-03-12T17:53:45.426Z,8.38
2019-03-12T17:56:16.696Z,8.32
2019-03-12T17:58:46.961Z,8.40
2019-03-12T18:01:17.674Z,8.31
2019-03-12T18:03:47.946Z,8.14
2019-03-12T18:06:37.485Z,8.23
2019-03-12T18:09:08.934Z,8.09
2019-03-12T18:11:59.173Z,8.04
2019-03-12T18:14:48.756Z,7.90
2019-03-12T18:17:21.240Z,7.84
2019-03-12T18:19:51.140Z,7.77
2019-03-12T18:22:23.390Z,7.67
2019-03-12T18:25:14.443Z,7.68
2019-03-12T18:28:03.678Z,7.72
2019-03-12T18:30:53.005Z,7.63
2019-03-12T18:33:42.198Z,7.57
2019-03-12T18:36:34.128Z,7.52
2019-03-12T18:39:06.587Z,7.54
2019-03-12T18:41:48.350Z,7.58
2019-03-12T18:44:30.316Z,6.93
2019-03-12T18:47:10.439Z,7.49
2019-03-12T18:49:40.827Z,7.41
2019-03-12T18:52:11.433Z,7.38
2019-03-12T18:55:21.309Z,7.40
2019-03-12T18:57:53.216Z,7.48
2019-03-12T19:00:24.287Z,7.45
2019-03-12T19:03:13.510Z,7.38
2019-03-12T19:06:02.676Z,7.54
2019-03-12T19:08:52.424Z,7.49
2019-03-12T19:11:41.629Z,7.45
2019-03-12T19:14:11.917Z,7.61
2019-03-12T19:16:53.778Z,7.57
2019-03-12T19:19:24.120Z,7.58
2019-03-12T19:22:37.203Z,7.63
2019-03-12T19:25:07.917Z,7.72
2019-03-12T19:27:38.242Z,7.60
2019-03-12T19:30:10.023Z,7.56
2019-03-12T19:32:48.755Z,7.52
2019-03-12T19:35:38.866Z,7.61
2019-03-12T19:38:09.244Z,7.68
2019-03-12T19:40:51.074Z,7.77
2019-03-12T19:43:25.185Z,7.79
2019-03-12T19:45:55.401Z,7.83
2019-03-12T19:48:26.204Z,7.74
2019-03-12T19:50:56.465Z,7.75
2019-03-12T19:53:49.554Z,7.81
2019-03-12T19:56:19.909Z,8.01
2019-03-12T19:58:50.125Z,8.07
2019-03-12T20:01:21.868Z,8.03
2019-03-12T20:03:52.067Z,7.97
2019-03-12T20:06:22.262Z,7.89
2019-03-12T20:08:52.419Z,7.83
2019-03-12T20:12:00.648Z,7.77
2019-03-12T20:15:09.248Z,7.75
2019-03-12T20:18:06.101Z,7.82
2019-03-12T20:24:59.852Z,8.18
2019-03-12T20:28:07.960Z,8.20
2019-03-12T20:31:16.871Z,8.18
2019-03-12T20:34:28.375Z,8.12
2019-03-12T20:37:37.384Z,8.03
2019-03-12T20:40:48.979Z,7.77
2019-03-12T20:47:55.843Z,7.62
2019-03-12T20:51:04.113Z,7.58
2019-03-12T20:57:43.054Z,7.46
2019-03-12T21:00:50.053Z,7.29
2019-03-12T21:03:50.109Z,7.41
2019-03-12T21:07:07.393Z,7.32
2019-03-12T21:09:55.928Z,7.34
2019-03-12T21:16:26.786Z,7.41
2019-03-12T21:19:41.199Z,7.44
2019-03-12T21:23:09.028Z,7.42
2019-03-12T21:26:13.046Z,7.70
2019-03-12T21:29:09.985Z,7.71
2019-03-12T21:32:05.718Z,7.69
2019-03-12T21:34:41.659Z,7.60
2019-03-12T21:37:31.569Z,7.75
2019-03-12T21:40:20.952Z,7.75
2019-03-12T21:42:51.087Z,7.74
2019-03-12T21:45:32.621Z,7.68
2019-03-12T21:48:02.817Z,7.66
2019-03-12T21:50:52.135Z,7.84
2019-03-12T21:53:41.476Z,7.77
2019-03-12T21:56:12.057Z,7.84
2019-03-12T21:58:42.306Z,7.73
2019-03-12T22:01:23.708Z,7.74
2019-03-12T22:06:36.748Z,7.62
2019-03-12T22:09:30.516Z,7.67
2019-03-12T22:12:19.814Z,7.73
2019-03-12T22:14:49.955Z,7.65
2019-03-12T22:17:39.591Z,7.93
2019-03-12T22:20:30.702Z,7.83
2019-03-12T22:23:26.274Z,8.01
2019-03-12T22:26:15.462Z,8.04
2019-03-12T22:29:04.717Z,8.13
2019-03-12T22:34:35.748Z,8.37
2019-03-12T22:37:05.880Z,8.47
2019-03-12T22:39:36.201Z,8.45
2019-03-12T22:42:06.672Z,8.54
2019-03-12T22:47:29.106Z,8.55
2019-03-12T22:50:18.476Z,8.90
2019-03-12T22:53:07.689Z,8.89
2019-03-12T22:55:57.018Z,8.90
2019-03-12T22:58:46.180Z,8.96
2019-03-12T23:01:35.962Z,8.94
2019-03-12T23:04:25.548Z,9.09
2019-03-12T23:07:15.038Z,9.16
2019-03-12T23:10:05.080Z,9.22
2019-03-12T23:12:54.731Z,9.22
2019-03-12T23:15:43.920Z,9.24
2019-03-12T23:18:33.399Z,9.35
2019-03-12T23:21:23.001Z,9.40
2019-03-12T23:24:12.356Z,9.53
2019-03-12T23:27:09.248Z,9.52
2019-03-12T23:29:59.053Z,9.58
2019-03-12T23:32:50.903Z,9.87
2019-03-12T23:35:40.134Z,10.10
2019-03-12T23:38:29.571Z,10.07
2019-03-12T23:41:19.060Z,10.19
2019-03-12T23:44:08.291Z,10.39
2019-03-12T23:46:49.608Z,10.63
2019-03-12T23:49:31.399Z,10.81
2019-03-12T23:52:13.210Z,10.73
2019-03-12T23:54:53.225Z,10.68
2019-03-12T23:57:45.022Z,10.68
